Airfield :
LOGIN :

Register | Disclaimer

   EN    FR    IT 

 










Legend :    VFR   Marginal VFR   IFR   Intensive IFR   Very Intensive IFR
Visi :
Ceiling :
>= 8 km
>= 3000ft
5 to 8 km
1000 to 3000 ft
1500m to 5 km
500 to 1000 ft
800 to 1500m
200 to 500 ft
< 800m
< 200 ft
Symbols :   Thunderstorms  Fog  Heavy snow  Heavy precipitations  Wind > 20 kt
SIGMETs :     Misc.  Thunderstorms  Icing  Turbulence  Mountain Waves  Volcanic Ashes






- Airport Elevation : 13 ft
- IATA code : GOA


LIMJ - Genoa Cristoforo Colombo

CURRENT METAR :
  • 260020Z 15004KT 8000 SCT015 BKN025 25/25 Q1009

EXPIRED METARs :
  • 252350Z 14005KT 9000 SCT015 BKN025 25/25 Q1009
  • 252320Z 13006KT 9000 SCT015 BKN023 25/25 Q1010
  • 252250Z 14008KT 9000 SCT015 BKN020 26/25 Q1010
  • 252220Z 13010KT 9000 SCT015 SCT020 26/25 Q1010
  • 252150Z 13011KT 8000 SCT015 SCT020 26/25 Q1010

TAF TAF LIMJ
Valid from the 26 at 00:00 until the 27 at 00:00 UTC


252300Z 2600/2624 13012KT 9999 FEW015 SCT030
TEMPO 2606/2612 TSRA
TEMPO 2618/2624 SHRA



MET'MAP, your aeronautical weather chart ! - Copyright ORBIFLY December 2007 - Disclaimer

ORBIFLY MET'MAP TEAM :

Programming & Development : Alexandra Zaïnal
Concept & original design : Baudouin d'Aumeries
Assistance for programming : Marc-Olivier Méhu
Technical & hardware support : Manuel Goepfert

Contact : metmap@orbifly.com




SOURCES & CREDITS :

   NOAA